createdAt,value
2023-02-25T00:00:47.289Z,3.76
2023-02-25T00:02:02.768Z,3.86
2023-02-25T00:03:45.047Z,3.92
2023-02-25T00:04:45.020Z,3.96
2023-02-25T00:05:45.037Z,3.97
2023-02-25T00:06:44.998Z,3.92
2023-02-25T00:07:44.992Z,3.92
2023-02-25T00:08:44.975Z,3.86
2023-02-25T00:09:44.967Z,3.90
2023-02-25T00:10:44.950Z,3.96
2023-02-25T00:11:44.935Z,3.98
2023-02-25T00:12:44.937Z,4.03
2023-02-25T00:13:44.944Z,3.98
2023-02-25T00:14:44.905Z,4.03
2023-02-25T00:15:44.909Z,3.94
2023-02-25T00:16:44.927Z,3.86
2023-02-25T00:17:44.887Z,4.01
2023-02-25T00:18:44.868Z,4.03
2023-02-25T00:19:44.851Z,3.98
2023-02-25T00:20:44.841Z,3.98
2023-02-25T00:21:44.832Z,4.03
2023-02-25T00:22:44.848Z,3.97
2023-02-25T00:23:44.815Z,3.96
2023-02-25T00:24:44.813Z,3.97
2023-02-25T00:25:44.789Z,3.79
2023-02-25T00:26:44.786Z,3.90
2023-02-25T00:27:44.779Z,3.92
2023-02-25T00:28:44.758Z,3.96
2023-02-25T00:29:44.744Z,3.92
2023-02-25T00:30:44.901Z,3.94
2023-02-25T00:31:44.917Z,3.92
2023-02-25T00:32:44.776Z,3.97
2023-02-25T00:33:44.709Z,3.89
2023-02-25T00:34:44.707Z,3.97
2023-02-25T00:35:44.679Z,3.88
2023-02-25T00:36:44.742Z,3.94
2023-02-25T00:37:44.667Z,3.88
2023-02-25T00:38:44.687Z,3.90
2023-02-25T00:39:44.742Z,3.83
2023-02-25T00:40:44.640Z,3.92
2023-02-25T00:41:44.628Z,3.92
2023-02-25T00:42:44.625Z,3.85
2023-02-25T00:43:44.605Z,3.98
2023-02-25T00:44:44.596Z,3.92
2023-02-25T00:45:44.597Z,3.96
2023-02-25T00:46:44.623Z,3.90
2023-02-25T00:47:44.553Z,3.92
2023-02-25T00:48:44.566Z,3.88
2023-02-25T00:49:44.532Z,3.82
2023-02-25T00:50:44.522Z,3.82
2023-02-25T00:51:44.518Z,3.94
2023-02-25T00:52:44.510Z,3.82
2023-02-25T00:53:44.486Z,3.88
2023-02-25T00:54:44.477Z,3.98
2023-02-25T00:55:44.474Z,3.80
2023-02-25T00:56:44.475Z,3.86
2023-02-25T00:57:44.451Z,3.92
2023-02-25T00:58:44.445Z,3.94
2023-02-25T00:59:44.422Z,3.83
2023-02-25T01:00:51.543Z,3.86
2023-02-25T01:01:45.475Z,3.97
2023-02-25T01:02:44.433Z,3.88
2023-02-25T01:03:44.413Z,3.78
2023-02-25T01:04:44.376Z,3.89
2023-02-25T01:05:44.364Z,3.79
2023-02-25T01:06:44.364Z,3.96
2023-02-25T01:07:44.349Z,3.90
2023-02-25T01:08:44.339Z,3.78
2023-02-25T01:09:44.312Z,3.83
2023-02-25T01:10:44.308Z,3.82
2023-02-25T01:11:44.309Z,3.88
2023-02-25T01:12:44.285Z,3.88
2023-02-25T01:13:44.286Z,3.92
2023-02-25T01:14:44.268Z,3.96
2023-02-25T01:15:44.266Z,3.97
2023-02-25T01:16:44.260Z,3.86
2023-02-25T01:17:44.242Z,3.92
2023-02-25T01:18:44.219Z,3.89
2023-02-25T01:19:44.217Z,4.01
2023-02-25T01:20:44.211Z,3.96
2023-02-25T01:21:44.212Z,3.90
2023-02-25T01:22:44.212Z,3.85
2023-02-25T01:23:44.165Z,3.82
2023-02-25T01:24:44.162Z,3.90
2023-02-25T01:25:44.152Z,3.89
2023-02-25T01:26:44.141Z,3.83
2023-02-25T01:27:44.168Z,3.79
2023-02-25T01:28:44.120Z,3.83
2023-02-25T01:29:44.102Z,3.85
2023-02-25T01:30:44.134Z,3.85
2023-02-25T01:31:44.224Z,3.89
2023-02-25T01:32:44.257Z,3.85
2023-02-25T01:33:44.062Z,3.72
2023-02-25T01:34:44.061Z,3.71
2023-02-25T01:35:44.049Z,3.86
2023-02-25T01:36:44.033Z,3.83
2023-02-25T01:37:44.045Z,3.89
2023-02-25T01:38:44.016Z,3.70
2023-02-25T01:39:44.004Z,3.79
2023-02-25T01:40:43.988Z,3.89
2023-02-25T01:41:43.992Z,3.79
2023-02-25T01:42:43.991Z,3.83
2023-02-25T01:43:43.961Z,3.83
2023-02-25T01:44:43.956Z,3.72
2023-02-25T01:45:43.947Z,3.71
2023-02-25T01:46:44.023Z,3.75
2023-02-25T01:47:43.942Z,3.78
2023-02-25T01:48:43.926Z,3.83
2023-02-25T01:49:43.900Z,3.75
2023-02-25T01:50:43.892Z,3.80
2023-02-25T01:51:43.876Z,3.78
2023-02-25T01:52:43.938Z,3.75
2023-02-25T01:53:43.860Z,3.85
2023-02-25T01:54:43.849Z,3.78
2023-02-25T01:55:43.846Z,3.75
2023-02-25T01:56:43.845Z,3.78
2023-02-25T01:57:43.851Z,3.68
2023-02-25T01:58:43.836Z,3.79
2023-02-25T01:59:43.855Z,3.78
2023-02-25T02:00:43.891Z,3.80
2023-02-25T02:01:43.803Z,3.67
2023-02-25T02:02:43.854Z,3.78
2023-02-25T02:03:43.782Z,3.71
2023-02-25T02:04:43.779Z,3.70
2023-02-25T02:05:43.752Z,3.70
2023-02-25T02:06:43.738Z,3.67
2023-02-25T02:07:43.778Z,3.80
2023-02-25T02:08:43.736Z,3.75
2023-02-25T02:09:43.713Z,3.80
2023-02-25T02:10:43.707Z,3.72
2023-02-25T02:11:43.684Z,3.65
2023-02-25T02:12:43.696Z,3.61
2023-02-25T02:13:43.666Z,3.70
2023-02-25T02:14:43.649Z,3.65
2023-02-25T02:15:43.635Z,3.64
2023-02-25T02:16:43.681Z,3.65
2023-02-25T02:17:43.628Z,3.70
2023-02-25T02:18:43.619Z,3.65
2023-02-25T02:19:43.623Z,3.65
2023-02-25T02:20:43.619Z,3.68
2023-02-25T02:21:43.583Z,3.75
2023-02-25T02:22:43.622Z,3.64
2023-02-25T02:23:43.550Z,3.60
2023-02-25T02:24:43.539Z,3.62
2023-02-25T02:25:43.550Z,3.65
2023-02-25T02:26:43.524Z,3.53
2023-02-25T02:27:43.549Z,3.60
2023-02-25T02:28:43.518Z,3.58
2023-02-25T02:29:43.555Z,3.67
2023-02-25T02:30:43.542Z,3.62
2023-02-25T02:31:43.578Z,3.64
2023-02-25T02:32:43.581Z,3.76
2023-02-25T02:33:43.492Z,3.70
2023-02-25T02:34:43.453Z,3.79
2023-02-25T02:35:43.444Z,3.62
2023-02-25T02:36:43.425Z,3.62
2023-02-25T02:37:43.419Z,3.71
2023-02-25T02:38:43.427Z,3.52
2023-02-25T02:39:43.398Z,3.44
2023-02-25T02:40:43.409Z,3.33
2023-02-25T02:41:43.375Z,3.39
2023-02-25T02:42:43.369Z,3.40
2023-02-25T02:43:43.363Z,3.42
2023-02-25T02:44:43.338Z,3.42
2023-02-25T02:45:43.335Z,3.39
2023-02-25T02:46:43.308Z,3.43
2023-02-25T02:47:43.321Z,3.36
2023-02-25T02:48:43.325Z,3.44
2023-02-25T02:49:43.297Z,3.53
2023-02-25T02:50:43.295Z,3.62
2023-02-25T02:51:43.261Z,3.57
2023-02-25T02:52:43.265Z,3.58
2023-02-25T02:53:43.261Z,3.54
2023-02-25T02:54:43.223Z,3.58
2023-02-25T02:55:43.221Z,3.65
2023-02-25T02:56:43.206Z,3.64
2023-02-25T02:57:43.194Z,3.60
2023-02-25T02:58:43.201Z,3.70
2023-02-25T02:59:43.378Z,3.71
2023-02-25T03:00:43.217Z,3.65
2023-02-25T03:01:43.149Z,3.68
2023-02-25T03:02:43.139Z,3.72
2023-02-25T03:03:43.170Z,3.71
2023-02-25T03:04:43.127Z,3.82
2023-02-25T03:05:43.107Z,3.71
2023-02-25T03:06:43.123Z,3.68
2023-02-25T03:07:43.088Z,3.68
2023-02-25T03:08:43.087Z,3.64
2023-02-25T03:09:43.103Z,3.60
2023-02-25T03:10:43.065Z,3.49
2023-02-25T03:11:43.052Z,3.52
2023-02-25T03:12:43.038Z,3.43
2023-02-25T03:13:43.050Z,3.36
2023-02-25T03:14:43.008Z,3.39
2023-02-25T03:15:43.005Z,3.28
2023-02-25T03:16:43.057Z,3.34
2023-02-25T03:17:42.982Z,3.31
2023-02-25T03:18:43.045Z,3.40
2023-02-25T03:19:42.987Z,3.47
2023-02-25T03:20:42.953Z,3.43
2023-02-25T03:21:42.953Z,3.44
2023-02-25T03:22:42.942Z,3.49
2023-02-25T03:23:42.930Z,3.58
2023-02-25T03:24:42.921Z,3.49
2023-02-25T03:25:42.920Z,3.54
2023-02-25T03:26:42.915Z,3.60
2023-02-25T03:27:42.901Z,3.58
2023-02-25T03:28:42.915Z,3.52
2023-02-25T03:29:42.874Z,3.57
2023-02-25T03:30:42.890Z,3.62
2023-02-25T03:31:42.999Z,3.60
2023-02-25T03:32:42.891Z,3.52
2023-02-25T03:33:42.819Z,3.65
2023-02-25T03:34:42.820Z,3.57
2023-02-25T03:35:42.848Z,3.64
2023-02-25T03:36:42.805Z,3.64
2023-02-25T03:37:42.791Z,3.60
2023-02-25T03:38:42.778Z,3.58
2023-02-25T03:39:43.964Z,3.64
2023-02-25T03:40:43.962Z,3.71
2023-02-25T03:41:43.945Z,3.64
2023-02-25T03:42:43.900Z,3.65
2023-02-25T03:43:43.932Z,3.62
2023-02-25T03:44:43.906Z,3.67
2023-02-25T03:45:43.931Z,3.61
2023-02-25T03:46:43.908Z,3.64
2023-02-25T03:47:43.950Z,3.67
2023-02-25T03:48:43.838Z,3.64
2023-02-25T03:49:43.840Z,3.61
2023-02-25T03:50:44.842Z,3.60
2023-02-25T03:51:43.828Z,3.62
2023-02-25T03:52:43.800Z,3.54
2023-02-25T03:53:43.789Z,3.68
2023-02-25T03:54:43.822Z,3.67
2023-02-25T03:55:43.778Z,3.58
2023-02-25T03:56:44.787Z,3.65
2023-02-25T03:57:43.746Z,3.60
2023-02-25T03:58:43.760Z,3.64
2023-02-25T03:59:43.786Z,3.62
2023-02-25T04:00:43.755Z,3.65
2023-02-25T04:01:43.716Z,3.71
2023-02-25T04:02:43.771Z,3.61
2023-02-25T04:03:43.682Z,3.70
2023-02-25T04:04:43.753Z,3.71
2023-02-25T04:05:43.721Z,3.62
2023-02-25T04:06:43.771Z,3.67
2023-02-25T04:07:43.710Z,3.67
2023-02-25T04:08:43.665Z,3.65
2023-02-25T04:09:43.649Z,3.62
2023-02-25T04:10:43.640Z,3.75
2023-02-25T04:11:43.661Z,3.62
2023-02-25T04:12:43.610Z,3.70
2023-02-25T04:13:43.607Z,3.71
2023-02-25T04:14:43.669Z,3.75
2023-02-25T04:15:43.692Z,3.75
2023-02-25T04:16:43.551Z,3.72
2023-02-25T04:17:43.588Z,3.67
2023-02-25T04:18:43.549Z,3.75
2023-02-25T04:19:43.595Z,3.71
2023-02-25T04:20:43.535Z,3.79
2023-02-25T04:21:43.510Z,3.88
2023-02-25T04:22:43.550Z,3.85
2023-02-25T04:23:43.515Z,3.88
2023-02-25T04:24:43.488Z,3.82
2023-02-25T04:25:43.484Z,3.86
2023-02-25T04:26:43.489Z,3.79
2023-02-25T04:27:43.461Z,3.68
2023-02-25T04:28:43.473Z,3.72
2023-02-25T04:29:43.439Z,3.78
2023-02-25T04:30:43.606Z,3.70
2023-02-25T04:31:43.522Z,3.85
2023-02-25T04:32:43.456Z,3.78
2023-02-25T04:33:43.407Z,3.85
2023-02-25T04:34:43.407Z,3.67
2023-02-25T04:35:43.386Z,3.80
2023-02-25T04:36:43.377Z,3.85
2023-02-25T04:37:43.360Z,3.86
2023-02-25T04:38:43.387Z,3.78
2023-02-25T04:39:43.336Z,3.76
2023-02-25T04:40:43.381Z,3.70
2023-02-25T04:41:43.316Z,3.65
2023-02-25T04:42:43.331Z,3.72
2023-02-25T04:43:43.295Z,3.67
2023-02-25T04:44:43.278Z,3.62
2023-02-25T04:45:44.287Z,3.79
2023-02-25T04:46:43.320Z,3.75
2023-02-25T04:47:43.250Z,3.80
2023-02-25T04:48:43.385Z,3.78
2023-02-25T04:49:43.266Z,3.65
2023-02-25T04:50:43.265Z,3.75
2023-02-25T04:51:43.266Z,3.70
2023-02-25T04:52:43.244Z,3.82
2023-02-25T04:53:43.254Z,3.75
2023-02-25T04:54:43.199Z,3.78
2023-02-25T04:55:43.196Z,3.85
2023-02-25T04:56:43.229Z,3.71
2023-02-25T04:57:43.171Z,3.71
2023-02-25T04:58:43.184Z,3.82
2023-02-25T04:59:43.165Z,3.83
2023-02-25T05:00:43.153Z,3.76
2023-02-25T05:01:43.238Z,3.75
2023-02-25T05:02:43.100Z,3.64
2023-02-25T05:03:43.146Z,3.83
2023-02-25T05:04:43.162Z,3.70
2023-02-25T05:05:43.067Z,3.76
2023-02-25T05:06:43.091Z,3.79
2023-02-25T05:07:43.054Z,3.75
2023-02-25T05:08:43.044Z,3.82
2023-02-25T05:09:44.063Z,3.75
2023-02-25T05:10:43.052Z,3.83
2023-02-25T05:11:43.045Z,3.71
2023-02-25T05:12:43.046Z,3.78
2023-02-25T05:13:42.993Z,3.83
2023-02-25T05:14:42.992Z,3.78
2023-02-25T05:15:42.996Z,3.78
2023-02-25T05:16:43.097Z,3.78
2023-02-25T05:17:42.987Z,3.71
2023-02-25T05:18:42.964Z,3.67
2023-02-25T05:19:42.940Z,3.67
2023-02-25T05:20:43.038Z,3.70
2023-02-25T05:21:42.940Z,3.68
2023-02-25T05:22:42.925Z,3.72
2023-02-25T05:23:42.883Z,3.71
2023-02-25T05:24:42.912Z,3.65
2023-02-25T05:25:42.880Z,3.54
2023-02-25T05:26:42.878Z,3.61
2023-02-25T05:27:42.888Z,3.71
2023-02-25T05:28:42.823Z,3.57
2023-02-25T05:29:42.867Z,3.64
2023-02-25T05:30:42.841Z,3.64
2023-02-25T05:31:42.984Z,3.71
2023-02-25T05:32:42.908Z,3.70
2023-02-25T05:33:42.795Z,3.60
2023-02-25T05:34:42.791Z,3.65
2023-02-25T05:35:42.795Z,3.70
2023-02-25T05:36:42.780Z,3.70
2023-02-25T05:37:42.772Z,3.75
2023-02-25T05:38:42.727Z,3.65
2023-02-25T05:39:42.748Z,3.62
2023-02-25T05:40:42.766Z,3.62
2023-02-25T05:41:42.710Z,3.65
2023-02-25T05:42:42.722Z,3.65
2023-02-25T05:43:42.709Z,3.65
2023-02-25T05:44:42.679Z,3.68
2023-02-25T05:45:42.712Z,3.71
2023-02-25T05:46:42.756Z,3.65
2023-02-25T05:47:42.714Z,3.75
2023-02-25T05:48:42.638Z,3.75
2023-02-25T05:49:42.641Z,3.72
2023-02-25T05:50:43.862Z,3.64
2023-02-25T05:51:42.650Z,3.82
2023-02-25T05:52:42.634Z,3.72
2023-02-25T05:53:42.657Z,3.71
2023-02-25T05:54:42.568Z,3.68
2023-02-25T05:55:42.579Z,3.65
2023-02-25T05:56:42.549Z,3.72
2023-02-25T05:57:42.590Z,3.72
2023-02-25T05:58:42.578Z,3.72
2023-02-25T05:59:42.569Z,3.62
2023-02-25T06:00:42.563Z,3.82
2023-02-25T06:01:42.527Z,3.72
2023-02-25T06:02:42.577Z,3.62
2023-02-25T06:03:42.502Z,3.71
2023-02-25T06:04:42.493Z,3.79
2023-02-25T06:05:42.511Z,3.76
2023-02-25T06:06:42.491Z,3.78
2023-02-25T06:07:42.476Z,3.62
2023-02-25T06:08:42.475Z,3.64
2023-02-25T06:09:42.428Z,3.64
2023-02-25T06:10:42.446Z,3.68
2023-02-25T06:11:42.431Z,3.65
2023-02-25T06:12:42.410Z,3.61
2023-02-25T06:13:42.438Z,3.70
2023-02-25T06:14:42.425Z,3.62
2023-02-25T06:15:42.370Z,3.61
2023-02-25T06:16:42.521Z,3.54
2023-02-25T06:17:42.375Z,3.61
2023-02-25T06:18:42.354Z,3.61
2023-02-25T06:19:42.326Z,3.54
2023-02-25T06:20:42.376Z,3.65
2023-02-25T06:21:42.315Z,3.62
2023-02-25T06:22:42.329Z,3.72
2023-02-25T06:23:42.316Z,3.68
2023-02-25T06:24:42.279Z,3.53
2023-02-25T06:25:42.303Z,3.71
2023-02-25T06:26:42.292Z,3.57
2023-02-25T06:27:42.287Z,3.71
2023-02-25T06:28:42.276Z,3.70
2023-02-25T06:29:42.239Z,3.68
2023-02-25T06:30:42.286Z,3.68
2023-02-25T06:31:42.387Z,3.79
2023-02-25T06:32:42.252Z,3.68
2023-02-25T06:33:42.271Z,3.54
2023-02-25T06:34:42.331Z,3.57
2023-02-25T06:35:42.182Z,3.58
2023-02-25T06:36:42.218Z,3.62
2023-02-25T06:37:42.191Z,3.64
2023-02-25T06:38:42.183Z,3.68
2023-02-25T06:39:42.148Z,3.60
2023-02-25T06:40:42.131Z,3.68
2023-02-25T06:41:42.165Z,3.71
2023-02-25T06:42:42.115Z,3.78
2023-02-25T06:43:42.100Z,3.70
2023-02-25T06:44:42.084Z,3.72
2023-02-25T06:45:42.137Z,3.88
2023-02-25T06:46:42.059Z,3.68
2023-02-25T06:47:42.092Z,3.79
2023-02-25T06:48:42.175Z,3.82
2023-02-25T06:49:42.112Z,3.83
2023-02-25T06:50:42.032Z,3.89
2023-02-25T06:51:42.005Z,3.96
2023-02-25T06:52:42.042Z,3.88
2023-02-25T06:53:42.041Z,3.92
2023-02-25T06:54:41.946Z,4.00
2023-02-25T06:55:42.107Z,3.96
2023-02-25T06:56:41.977Z,3.88
2023-02-25T06:57:41.957Z,3.96
2023-02-25T06:58:42.005Z,3.98
2023-02-25T06:59:42.002Z,3.98
2023-02-25T07:00:41.936Z,4.07
2023-02-25T07:01:42.001Z,4.06
2023-02-25T07:02:41.933Z,4.07
2023-02-25T07:03:41.920Z,4.07
2023-02-25T07:04:43.977Z,4.14
2023-02-25T07:05:42.907Z,3.94
2023-02-25T07:06:41.925Z,3.90
2023-02-25T07:07:41.845Z,3.86
2023-02-25T07:08:41.894Z,3.79
2023-02-25T07:09:41.831Z,3.89
2023-02-25T07:10:41.874Z,3.96
2023-02-25T07:11:41.837Z,3.96
2023-02-25T07:12:41.821Z,3.90
2023-02-25T07:13:41.954Z,4.04
2023-02-25T07:14:41.899Z,4.08
2023-02-25T07:15:41.967Z,4.08
2023-02-25T07:16:41.923Z,4.10
2023-02-25T07:17:41.896Z,4.15
2023-02-25T07:18:41.855Z,4.16
2023-02-25T07:19:41.762Z,4.14
2023-02-25T07:20:41.771Z,4.22
2023-02-25T07:21:41.734Z,4.14
2023-02-25T07:22:41.815Z,4.18
2023-02-25T07:23:41.800Z,4.10
2023-02-25T07:24:41.698Z,4.04
2023-02-25T07:25:41.738Z,4.08
2023-02-25T07:26:41.698Z,4.03
2023-02-25T07:27:44.400Z,3.97
2023-02-25T07:28:42.713Z,4.03
2023-02-25T07:29:41.689Z,4.08
2023-02-25T07:30:41.777Z,4.12
2023-02-25T07:31:41.791Z,4.16
2023-02-25T07:32:41.813Z,4.19
2023-02-25T07:33:41.804Z,4.14
2023-02-25T07:34:41.723Z,4.16
2023-02-25T07:35:41.718Z,4.14
2023-02-25T07:36:41.710Z,4.15
2023-02-25T07:37:41.600Z,4.16
2023-02-25T07:38:42.396Z,4.18
2023-02-25T07:39:42.056Z,4.22
2023-02-25T07:40:41.675Z,4.12
2023-02-25T07:41:41.580Z,4.12
2023-02-25T07:42:41.542Z,4.03
2023-02-25T07:43:41.587Z,4.04
2023-02-25T07:44:41.541Z,3.98
2023-02-25T07:45:41.693Z,3.75
2023-02-25T07:46:41.725Z,3.90
2023-02-25T07:47:41.590Z,3.82
2023-02-25T07:48:41.519Z,3.89
2023-02-25T07:49:41.943Z,3.97
2023-02-25T07:50:41.417Z,3.92
2023-02-25T07:52:58.062Z,3.94
2023-02-25T07:53:58.322Z,3.89
2023-02-25T07:54:59.635Z,4.01
2023-02-25T07:55:58.319Z,4.04
2023-02-25T07:56:58.039Z,4.16
2023-02-25T07:57:58.027Z,4.06
2023-02-25T07:58:58.024Z,4.03
2023-02-25T07:59:57.993Z,4.12
2023-02-25T08:00:57.986Z,4.16
2023-02-25T08:01:57.966Z,4.07
2023-02-25T08:02:57.998Z,4.04
2023-02-25T08:03:57.999Z,4.06
2023-02-25T08:04:57.933Z,4.15
2023-02-25T08:05:57.923Z,4.08
2023-02-25T08:06:57.909Z,4.22
2023-02-25T08:07:57.913Z,4.28
2023-02-25T08:08:57.926Z,4.19
2023-02-25T08:09:57.899Z,4.26
2023-02-25T08:10:57.864Z,4.25
2023-02-25T08:11:57.857Z,4.26
2023-02-25T08:12:57.847Z,4.43
2023-02-25T08:13:57.850Z,4.32
2023-02-25T08:14:57.821Z,4.29
2023-02-25T08:15:57.833Z,4.33
2023-02-25T08:16:57.813Z,4.40
2023-02-25T08:17:57.791Z,4.46
2023-02-25T08:18:57.790Z,4.46
2023-02-25T08:19:57.774Z,4.52
2023-02-25T08:20:57.758Z,4.39
2023-02-25T08:21:57.752Z,4.43
2023-02-25T08:22:57.736Z,4.46
2023-02-25T08:23:57.743Z,4.43
2023-02-25T08:24:57.714Z,4.46
2023-02-25T08:25:57.721Z,4.50
2023-02-25T08:26:57.694Z,4.52
2023-02-25T08:27:57.687Z,4.33
2023-02-25T08:28:57.679Z,4.15
2023-02-25T08:29:57.662Z,4.14
2023-02-25T08:30:57.807Z,4.06
2023-02-25T08:31:57.927Z,4.19
2023-02-25T08:32:57.686Z,4.28
2023-02-25T08:33:57.637Z,4.28
2023-02-25T08:34:57.621Z,4.33
2023-02-25T08:35:57.620Z,4.36
2023-02-25T08:36:57.593Z,4.43
2023-02-25T08:37:57.584Z,4.42
2023-02-25T08:38:57.616Z,4.36
2023-02-25T08:39:57.567Z,4.39
2023-02-25T08:40:57.548Z,4.32
2023-02-25T08:41:57.538Z,4.25
2023-02-25T08:42:57.528Z,4.15
2023-02-25T08:43:57.528Z,3.97
2023-02-25T08:44:57.513Z,3.96
2023-02-25T08:45:57.502Z,3.90
2023-02-25T08:46:57.530Z,3.79
2023-02-25T08:47:57.486Z,3.72
2023-02-25T08:48:57.481Z,3.72
2023-02-25T08:49:57.460Z,3.71
2023-02-25T08:50:57.444Z,3.65
2023-02-25T08:51:57.437Z,3.75
2023-02-25T08:52:57.418Z,3.78
2023-02-25T08:53:57.429Z,3.78
2023-02-25T08:54:57.399Z,3.78
2023-02-25T08:55:57.390Z,3.83
2023-02-25T08:56:57.375Z,3.82
2023-02-25T08:57:57.368Z,3.71
2023-02-25T08:58:57.369Z,3.75
2023-02-25T08:59:57.340Z,3.78
2023-02-25T09:00:57.380Z,3.71
2023-02-25T09:01:57.320Z,3.79
2023-02-25T09:02:57.312Z,3.88
2023-02-25T09:03:57.314Z,3.86
2023-02-25T09:04:57.289Z,3.92
2023-02-25T09:05:57.283Z,3.92
2023-02-25T09:06:57.272Z,3.90
2023-02-25T09:07:57.260Z,4.10
2023-02-25T09:08:57.259Z,4.18
2023-02-25T09:09:57.249Z,4.16
2023-02-25T09:10:57.223Z,4.06
2023-02-25T09:11:57.213Z,4.00
2023-02-25T09:12:57.206Z,3.97
2023-02-25T09:13:57.202Z,3.96
2023-02-25T09:14:57.181Z,3.90
2023-02-25T09:15:57.180Z,3.96
2023-02-25T09:16:57.230Z,4.08
2023-02-25T09:17:57.164Z,4.10
2023-02-25T09:18:57.154Z,4.29
2023-02-25T09:19:57.133Z,4.29
2023-02-25T09:20:57.117Z,4.34
2023-02-25T09:21:57.108Z,4.46
2023-02-25T09:22:57.424Z,4.55
2023-02-25T09:23:57.108Z,4.62
2023-02-25T09:24:57.075Z,4.54
2023-02-25T09:25:57.074Z,4.51
2023-02-25T09:26:57.050Z,4.52
2023-02-25T09:27:57.056Z,4.61
2023-02-25T09:28:57.031Z,4.46
2023-02-25T09:29:57.035Z,4.57
2023-02-25T09:30:57.077Z,4.54
2023-02-25T09:31:57.206Z,4.51
2023-02-25T09:32:57.110Z,4.70
2023-02-25T09:33:56.982Z,4.73
2023-02-25T09:34:56.978Z,4.95
2023-02-25T09:35:56.962Z,4.91
2023-02-25T09:36:56.941Z,4.99
2023-02-25T09:37:56.936Z,5.07
2023-02-25T09:38:56.929Z,5.27
2023-02-25T09:39:56.930Z,5.57
2023-02-25T09:40:56.904Z,5.75
2023-02-25T09:41:56.903Z,5.93
2023-02-25T09:42:56.881Z,6.06
2023-02-25T09:43:56.881Z,6.07
2023-02-25T09:44:56.871Z,6.10
2023-02-25T09:45:56.904Z,6.10
2023-02-25T09:46:56.836Z,6.30
2023-02-25T09:47:56.893Z,6.11
2023-02-25T09:48:56.826Z,6.35
2023-02-25T09:49:56.846Z,6.44
2023-02-25T09:50:56.811Z,6.66
2023-02-25T09:51:56.790Z,6.80
2023-02-25T09:52:56.776Z,6.95
2023-02-25T09:53:56.840Z,7.24
2023-02-25T09:54:56.763Z,7.32
2023-02-25T09:55:56.740Z,7.07
2023-02-25T09:56:56.734Z,6.91
2023-02-25T09:57:56.729Z,6.87
2023-02-25T09:58:56.716Z,6.80
2023-02-25T09:59:56.713Z,6.41
2023-02-25T10:00:56.699Z,6.48
2023-02-25T10:01:56.692Z,6.59
2023-02-25T10:02:56.795Z,6.48
2023-02-25T10:03:56.661Z,6.38
2023-02-25T10:04:56.662Z,6.06
2023-02-25T10:05:56.649Z,5.98
2023-02-25T10:06:56.625Z,5.71
2023-02-25T10:07:56.631Z,5.53
2023-02-25T10:08:56.603Z,5.30
2023-02-25T10:09:56.601Z,5.22
2023-02-25T10:10:56.590Z,5.05
2023-02-25T10:11:56.570Z,4.86
2023-02-25T10:12:56.564Z,4.72
2023-02-25T10:13:56.672Z,4.61
2023-02-25T10:14:56.568Z,4.46
2023-02-25T10:15:56.533Z,4.37
2023-02-25T10:16:56.551Z,4.37
2023-02-25T10:17:56.516Z,4.44
2023-02-25T10:18:56.500Z,4.33
2023-02-25T10:19:56.511Z,4.43
2023-02-25T10:20:56.473Z,4.47
2023-02-25T10:21:56.476Z,4.47
2023-02-25T10:22:56.462Z,4.47
2023-02-25T10:23:56.501Z,4.55
2023-02-25T10:24:56.447Z,4.50
2023-02-25T10:25:56.420Z,4.32
2023-02-25T10:26:56.407Z,4.36
2023-02-25T10:27:56.399Z,4.39
2023-02-25T10:28:56.389Z,4.33
2023-02-25T10:29:56.387Z,4.32
2023-02-25T10:30:56.432Z,4.29
2023-02-25T10:31:56.608Z,4.40
2023-02-25T10:32:56.387Z,4.44
2023-02-25T10:33:56.333Z,4.50
2023-02-25T10:34:56.329Z,4.43
2023-02-25T10:35:56.309Z,4.47
2023-02-25T10:36:56.299Z,4.42
2023-02-25T10:37:56.325Z,4.47
2023-02-25T10:38:56.279Z,4.55
2023-02-25T10:39:56.284Z,4.51
2023-02-25T10:40:56.259Z,4.62
2023-02-25T10:41:56.272Z,4.65
2023-02-25T10:42:56.236Z,4.89
2023-02-25T10:43:56.223Z,4.80
2023-02-25T10:44:56.222Z,4.86
2023-02-25T10:45:56.249Z,4.99
2023-02-25T10:46:56.187Z,5.23
2023-02-25T10:47:56.175Z,5.46
2023-02-25T10:48:56.182Z,5.91
2023-02-25T10:49:56.169Z,5.98
2023-02-25T10:50:56.147Z,6.11
2023-02-25T10:51:56.139Z,6.30
2023-02-25T10:52:56.130Z,6.38
2023-02-25T10:53:56.130Z,6.36
2023-02-25T10:54:56.107Z,6.11
2023-02-25T10:55:56.106Z,6.48
2023-02-25T10:56:56.084Z,7.84
2023-02-25T10:57:56.071Z,9.24
2023-02-25T10:58:56.064Z,9.75
2023-02-25T10:59:56.049Z,10.80
2023-02-25T11:00:56.057Z,12.09
2023-02-25T11:01:56.088Z,12.67
2023-02-25T11:02:56.067Z,13.44
2023-02-25T11:03:56.029Z,13.91
2023-02-25T11:04:56.004Z,14.02
2023-02-25T11:05:55.992Z,14.29
2023-02-25T11:06:55.974Z,14.72
2023-02-25T11:07:55.974Z,14.68
2023-02-25T11:08:55.949Z,14.94
2023-02-25T11:09:55.939Z,15.45
2023-02-25T11:10:55.970Z,16.38
2023-02-25T11:11:55.930Z,17.22
2023-02-25T11:12:55.907Z,17.06
2023-02-25T11:13:55.896Z,15.76
2023-02-25T11:14:55.886Z,14.29
2023-02-25T11:15:55.902Z,15.15
2023-02-25T11:16:55.860Z,15.13
2023-02-25T11:17:55.851Z,15.21
2023-02-25T11:18:55.836Z,15.56
2023-02-25T11:19:55.863Z,15.46
2023-02-25T11:20:55.841Z,15.49
2023-02-25T11:21:55.803Z,15.57
2023-02-25T11:22:55.796Z,14.78
2023-02-25T11:23:55.786Z,14.10
2023-02-25T11:24:55.775Z,13.20
2023-02-25T11:25:55.777Z,12.88
2023-02-25T11:26:55.759Z,12.23
2023-02-25T11:27:55.745Z,11.82
2023-02-25T11:28:55.738Z,11.68
2023-02-25T11:29:55.730Z,11.47
2023-02-25T11:30:55.812Z,10.99
2023-02-25T11:31:55.903Z,10.04
2023-02-25T11:32:55.747Z,9.91
2023-02-25T11:33:55.690Z,9.70
2023-02-25T11:34:55.677Z,9.82
2023-02-25T11:35:55.701Z,9.56
2023-02-25T11:36:55.657Z,9.56
2023-02-25T11:37:55.643Z,9.66
2023-02-25T11:38:55.628Z,9.96
2023-02-25T11:39:55.620Z,9.91
2023-02-25T11:40:55.613Z,10.34
2023-02-25T11:41:55.606Z,10.43
2023-02-25T11:42:55.589Z,10.00
2023-02-25T11:43:55.571Z,9.58
2023-02-25T11:44:55.561Z,9.05
2023-02-25T11:45:55.559Z,8.47
2023-02-25T11:46:55.557Z,8.18
2023-02-25T11:47:55.532Z,7.94
2023-02-25T11:48:55.520Z,7.74
2023-02-25T11:49:55.506Z,7.29
2023-02-25T11:50:55.500Z,6.98
2023-02-25T11:51:55.502Z,6.72
2023-02-25T11:52:55.489Z,6.43
2023-02-25T11:53:55.501Z,6.10
2023-02-25T11:54:55.459Z,5.75
2023-02-25T11:55:55.456Z,5.52
2023-02-25T11:56:55.462Z,5.32
2023-02-25T11:57:55.422Z,5.22
2023-02-25T11:58:55.417Z,4.96
2023-02-25T11:59:55.405Z,5.02
2023-02-25T12:00:55.400Z,4.83
2023-02-25T12:01:55.404Z,4.83
2023-02-25T12:02:55.402Z,4.72
2023-02-25T12:03:55.360Z,4.69
2023-02-25T12:04:55.363Z,4.67
2023-02-25T12:05:55.458Z,4.79
2023-02-25T12:06:55.344Z,4.98
2023-02-25T12:08:12.312Z,5.01
2023-02-25T12:08:56.313Z,5.14
2023-02-25T12:09:55.308Z,5.56
2023-02-25T12:10:55.289Z,5.74
2023-02-25T12:11:55.286Z,5.91
2023-02-25T12:12:55.276Z,5.95
2023-02-25T12:13:55.280Z,5.75
2023-02-25T12:14:55.252Z,5.66
2023-02-25T12:15:55.234Z,5.67
2023-02-25T12:16:55.240Z,5.75
2023-02-25T12:17:55.221Z,5.75
2023-02-25T12:18:55.223Z,5.93
2023-02-25T12:19:55.194Z,6.03
2023-02-25T12:20:55.181Z,6.22
2023-02-25T12:21:55.201Z,6.77
2023-02-25T12:22:55.162Z,7.89
2023-02-25T12:23:55.193Z,9.01
2023-02-25T12:24:55.142Z,10.06
2023-02-25T12:25:55.127Z,11.29
2023-02-25T12:26:55.131Z,12.24
2023-02-25T12:27:55.104Z,11.53
2023-02-25T12:28:55.092Z,11.50
2023-02-25T12:29:55.081Z,12.01
2023-02-25T12:30:55.133Z,12.04
2023-02-25T12:31:55.147Z,11.75
2023-02-25T12:32:55.049Z,11.68
2023-02-25T12:33:55.038Z,11.75
2023-02-25T12:34:55.029Z,11.68
2023-02-25T12:35:55.018Z,12.84
2023-02-25T12:36:55.029Z,14.27
2023-02-25T12:37:55.009Z,15.33
2023-02-25T12:38:54.993Z,15.36
2023-02-25T12:39:54.976Z,15.96
2023-02-25T12:40:54.969Z,16.77
2023-02-25T12:41:54.968Z,17.78
2023-02-25T12:42:54.943Z,16.89
2023-02-25T12:43:54.932Z,14.04
2023-02-25T12:44:54.933Z,12.89
2023-02-25T12:45:54.934Z,12.16
2023-02-25T12:46:54.905Z,11.83
2023-02-25T12:47:54.900Z,11.82
2023-02-25T12:48:54.879Z,11.02
2023-02-25T12:49:54.870Z,10.53
2023-02-25T12:50:54.860Z,10.07
2023-02-25T12:51:54.847Z,9.91
2023-02-25T12:52:54.855Z,10.01
2023-02-25T12:53:54.857Z,9.58
2023-02-25T12:54:54.820Z,9.21
2023-02-25T12:55:54.800Z,8.84
2023-02-25T12:56:54.794Z,8.86
2023-02-25T12:57:54.791Z,8.35
2023-02-25T12:58:54.768Z,8.30
2023-02-25T12:59:54.763Z,8.20
2023-02-25T13:00:54.795Z,8.17
2023-02-25T13:01:54.737Z,7.77
2023-02-25T13:02:54.744Z,7.84
2023-02-25T13:03:54.714Z,7.90
2023-02-25T13:04:54.704Z,8.11
2023-02-25T13:05:54.694Z,8.21
2023-02-25T13:06:54.686Z,8.50
2023-02-25T13:07:54.681Z,8.44
2023-02-25T13:08:54.660Z,9.49
2023-02-25T13:09:54.653Z,8.94
2023-02-25T13:10:54.647Z,9.09
2023-02-25T13:12:11.068Z,9.30
2023-02-25T13:12:55.634Z,9.13
2023-02-25T13:13:54.603Z,9.53
2023-02-25T13:14:54.596Z,9.71
2023-02-25T13:15:54.588Z,10.80
2023-02-25T13:16:54.596Z,10.43
2023-02-25T13:17:54.576Z,9.71
2023-02-25T13:18:54.624Z,10.74